sensor_id;sensor_type;location;lat;lon;timestamp;P1;durP1;ratioP1;P2;durP2;ratioP2
42140;SDS011;27809;51.864;5.646;2023-09-12T00:00:08;28.05;;;14.75;;
42140;SDS011;27809;51.864;5.646;2023-09-12T00:02:35;32.42;;;16.10;;
42140;SDS011;27809;51.864;5.646;2023-09-12T00:05:00;32.95;;;16.25;;
42140;SDS011;27809;51.864;5.646;2023-09-12T00:07:26;26.15;;;14.52;;
42140;SDS011;27809;51.864;5.646;2023-09-12T00:09:52;25.63;;;12.32;;
42140;SDS011;27809;51.864;5.646;2023-09-12T00:12:17;25.05;;;13.50;;
42140;SDS011;27809;51.864;5.646;2023-09-12T00:14:46;23.55;;;13.48;;
42140;SDS011;27809;51.864;5.646;2023-09-12T00:17:12;20.52;;;12.45;;
42140;SDS011;27809;51.864;5.646;2023-09-12T00:19:37;27.35;;;14.35;;
42140;SDS011;27809;51.864;5.646;2023-09-12T00:22:03;34.35;;;14.23;;
42140;SDS011;27809;51.864;5.646;2023-09-12T00:24:28;23.15;;;12.90;;
42140;SDS011;27809;51.864;5.646;2023-09-12T00:26:54;25.55;;;14.50;;
42140;SDS011;27809;51.864;5.646;2023-09-12T00:29:19;22.05;;;13.77;;
42140;SDS011;27809;51.864;5.646;2023-09-12T00:31:45;23.60;;;13.93;;
42140;SDS011;27809;51.864;5.646;2023-09-12T00:34:15;27.83;;;15.38;;
42140;SDS011;27809;51.864;5.646;2023-09-12T00:36:43;28.20;;;14.50;;
42140;SDS011;27809;51.864;5.646;2023-09-12T00:39:09;35.42;;;16.27;;
42140;SDS011;27809;51.864;5.646;2023-09-12T00:41:35;30.83;;;15.60;;
42140;SDS011;27809;51.864;5.646;2023-09-12T00:44:00;31.65;;;15.13;;
42140;SDS011;27809;51.864;5.646;2023-09-12T00:46:26;41.60;;;20.60;;
42140;SDS011;27809;51.864;5.646;2023-09-12T00:48:53;40.60;;;21.30;;
42140;SDS011;27809;51.864;5.646;2023-09-12T00:51:20;38.20;;;22.05;;
42140;SDS011;27809;51.864;5.646;2023-09-12T00:53:47;42.42;;;21.40;;
42140;SDS011;27809;51.864;5.646;2023-09-12T00:56:13;39.38;;;23.67;;
42140;SDS011;27809;51.864;5.646;2023-09-12T00:58:39;38.30;;;19.10;;
42140;SDS011;27809;51.864;5.646;2023-09-12T01:01:05;45.55;;;22.92;;
42140;SDS011;27809;51.864;5.646;2023-09-12T01:03:31;46.20;;;21.40;;
42140;SDS011;27809;51.864;5.646;2023-09-12T01:05:57;37.53;;;17.95;;
42140;SDS011;27809;51.864;5.646;2023-09-12T01:08:24;30.10;;;18.90;;
42140;SDS011;27809;51.864;5.646;2023-09-12T01:10:50;39.03;;;17.42;;
42140;SDS011;27809;51.864;5.646;2023-09-12T01:13:18;32.75;;;17.50;;
42140;SDS011;27809;51.864;5.646;2023-09-12T01:15:44;27.13;;;15.95;;
42140;SDS011;27809;51.864;5.646;2023-09-12T01:18:09;29.70;;;15.50;;
42140;SDS011;27809;51.864;5.646;2023-09-12T01:20:36;28.10;;;15.93;;
42140;SDS011;27809;51.864;5.646;2023-09-12T01:28:17;35.30;;;20.35;;
42140;SDS011;27809;51.864;5.646;2023-09-12T01:30:45;40.40;;;19.63;;
42140;SDS011;27809;51.864;5.646;2023-09-12T01:33:13;36.15;;;20.65;;
42140;SDS011;27809;51.864;5.646;2023-09-12T01:35:39;36.95;;;19.83;;
42140;SDS011;27809;51.864;5.646;2023-09-12T01:38:04;33.40;;;18.88;;
42140;SDS011;27809;51.864;5.646;2023-09-12T01:40:38;46.30;;;21.48;;
42140;SDS011;27809;51.864;5.646;2023-09-12T01:43:15;40.15;;;19.67;;
42140;SDS011;27809;51.864;5.646;2023-09-12T01:45:42;38.83;;;22.90;;
42140;SDS011;27809;51.864;5.646;2023-09-12T01:48:09;36.40;;;21.45;;
42140;SDS011;27809;51.864;5.646;2023-09-12T01:50:36;37.78;;;20.67;;
42140;SDS011;27809;51.864;5.646;2023-09-12T01:53:02;43.67;;;23.52;;
42140;SDS011;27809;51.864;5.646;2023-09-12T01:55:29;43.92;;;21.85;;
42140;SDS011;27809;51.864;5.646;2023-09-12T01:57:55;44.30;;;23.13;;
42140;SDS011;27809;51.864;5.646;2023-09-12T02:00:22;41.42;;;21.65;;
42140;SDS011;27809;51.864;5.646;2023-09-12T02:02:48;39.55;;;21.13;;
42140;SDS011;27809;51.864;5.646;2023-09-12T02:05:15;43.28;;;18.75;;
42140;SDS011;27809;51.864;5.646;2023-09-12T02:07:45;28.33;;;16.88;;
42140;SDS011;27809;51.864;5.646;2023-09-12T02:10:11;38.40;;;19.95;;
42140;SDS011;27809;51.864;5.646;2023-09-12T02:12:37;41.92;;;20.15;;
42140;SDS011;27809;51.864;5.646;2023-09-12T02:15:03;33.67;;;19.20;;
42140;SDS011;27809;51.864;5.646;2023-09-12T02:17:30;34.97;;;19.05;;
42140;SDS011;27809;51.864;5.646;2023-09-12T02:19:55;39.28;;;18.00;;
42140;SDS011;27809;51.864;5.646;2023-09-12T02:22:21;37.10;;;20.15;;
42140;SDS011;27809;51.864;5.646;2023-09-12T02:24:46;40.55;;;21.17;;
42140;SDS011;27809;51.864;5.646;2023-09-12T02:27:12;30.10;;;15.85;;
42140;SDS011;27809;51.864;5.646;2023-09-12T02:29:38;33.55;;;18.13;;
42140;SDS011;27809;51.864;5.646;2023-09-12T02:32:04;31.55;;;16.88;;
42140;SDS011;27809;51.864;5.646;2023-09-12T02:34:30;35.63;;;16.83;;
42140;SDS011;27809;51.864;5.646;2023-09-12T02:36:56;40.08;;;18.98;;
42140;SDS011;27809;51.864;5.646;2023-09-12T02:39:21;27.65;;;16.25;;
42140;SDS011;27809;51.864;5.646;2023-09-12T02:41:46;31.02;;;15.05;;
42140;SDS011;27809;51.864;5.646;2023-09-12T02:44:12;29.27;;;18.15;;
42140;SDS011;27809;51.864;5.646;2023-09-12T02:46:37;36.78;;;18.38;;
42140;SDS011;27809;51.864;5.646;2023-09-12T02:49:03;35.63;;;19.17;;
42140;SDS011;27809;51.864;5.646;2023-09-12T02:51:28;41.25;;;21.48;;
42140;SDS011;27809;51.864;5.646;2023-09-12T02:53:54;69.25;;;26.60;;
42140;SDS011;27809;51.864;5.646;2023-09-12T02:56:20;77.22;;;30.42;;
42140;SDS011;27809;51.864;5.646;2023-09-12T02:58:45;46.42;;;23.80;;
42140;SDS011;27809;51.864;5.646;2023-09-12T03:01:18;47.55;;;25.60;;
42140;SDS011;27809;51.864;5.646;2023-09-12T03:03:47;38.05;;;19.25;;
42140;SDS011;27809;51.864;5.646;2023-09-12T03:06:13;19.67;;;11.65;;
42140;SDS011;27809;51.864;5.646;2023-09-12T03:08:40;30.65;;;15.55;;
42140;SDS011;27809;51.864;5.646;2023-09-12T03:11:06;24.85;;;13.60;;
42140;SDS011;27809;51.864;5.646;2023-09-12T03:13:33;28.23;;;16.45;;
42140;SDS011;27809;51.864;5.646;2023-09-12T03:15:59;29.38;;;14.80;;
42140;SDS011;27809;51.864;5.646;2023-09-12T03:18:24;27.38;;;15.45;;
42140;SDS011;27809;51.864;5.646;2023-09-12T03:20:50;28.13;;;16.02;;
42140;SDS011;27809;51.864;5.646;2023-09-12T03:23:16;31.30;;;17.52;;
42140;SDS011;27809;51.864;5.646;2023-09-12T03:25:41;35.70;;;18.30;;
42140;SDS011;27809;51.864;5.646;2023-09-12T03:28:07;47.28;;;21.50;;
42140;SDS011;27809;51.864;5.646;2023-09-12T03:30:33;32.05;;;18.98;;
42140;SDS011;27809;51.864;5.646;2023-09-12T03:33:00;33.28;;;18.52;;
42140;SDS011;27809;51.864;5.646;2023-09-12T03:35:26;30.02;;;17.30;;
42140;SDS011;27809;51.864;5.646;2023-09-12T03:37:53;33.75;;;15.88;;
42140;SDS011;27809;51.864;5.646;2023-09-12T03:40:18;26.58;;;16.08;;
42140;SDS011;27809;51.864;5.646;2023-09-12T03:42:44;39.75;;;21.00;;
42140;SDS011;27809;51.864;5.646;2023-09-12T03:45:09;44.13;;;21.73;;
42140;SDS011;27809;51.864;5.646;2023-09-12T03:47:35;52.17;;;24.55;;
42140;SDS011;27809;51.864;5.646;2023-09-12T03:50:00;61.80;;;29.25;;
42140;SDS011;27809;51.864;5.646;2023-09-12T03:52:27;59.00;;;25.60;;
42140;SDS011;27809;51.864;5.646;2023-09-12T03:54:52;54.17;;;26.30;;
42140;SDS011;27809;51.864;5.646;2023-09-12T03:57:18;50.90;;;25.48;;
42140;SDS011;27809;51.864;5.646;2023-09-12T03:59:44;52.97;;;24.15;;
42140;SDS011;27809;51.864;5.646;2023-09-12T04:02:11;38.20;;;19.23;;
42140;SDS011;27809;51.864;5.646;2023-09-12T04:04:37;25.05;;;15.23;;
42140;SDS011;27809;51.864;5.646;2023-09-12T04:07:03;34.92;;;17.02;;
42140;SDS011;27809;51.864;5.646;2023-09-12T04:09:28;31.30;;;15.50;;
42140;SDS011;27809;51.864;5.646;2023-09-12T04:11:54;33.92;;;16.60;;
42140;SDS011;27809;51.864;5.646;2023-09-12T04:14:20;40.70;;;17.90;;
42140;SDS011;27809;51.864;5.646;2023-09-12T04:16:46;35.95;;;19.23;;
42140;SDS011;27809;51.864;5.646;2023-09-12T04:19:13;49.03;;;21.20;;
42140;SDS011;27809;51.864;5.646;2023-09-12T04:21:39;77.13;;;33.15;;
42140;SDS011;27809;51.864;5.646;2023-09-12T04:24:05;74.43;;;32.10;;
42140;SDS011;27809;51.864;5.646;2023-09-12T04:26:31;77.50;;;30.00;;
42140;SDS011;27809;51.864;5.646;2023-09-12T04:28:57;89.63;;;35.63;;
42140;SDS011;27809;51.864;5.646;2023-09-12T04:31:22;82.63;;;32.60;;
42140;SDS011;27809;51.864;5.646;2023-09-12T04:33:50;89.57;;;34.60;;
42140;SDS011;27809;51.864;5.646;2023-09-12T04:36:16;80.60;;;32.15;;
42140;SDS011;27809;51.864;5.646;2023-09-12T04:38:42;102.90;;;36.20;;
42140;SDS011;27809;51.864;5.646;2023-09-12T04:41:07;85.93;;;32.33;;
42140;SDS011;27809;51.864;5.646;2023-09-12T04:43:33;69.57;;;29.52;;
42140;SDS011;27809;51.864;5.646;2023-09-12T04:45:59;80.95;;;28.25;;
42140;SDS011;27809;51.864;5.646;2023-09-12T04:48:25;58.90;;;25.92;;
42140;SDS011;27809;51.864;5.646;2023-09-12T04:50:50;67.25;;;26.88;;
42140;SDS011;27809;51.864;5.646;2023-09-12T04:53:16;80.82;;;25.75;;
42140;SDS011;27809;51.864;5.646;2023-09-12T04:55:41;68.57;;;26.48;;
42140;SDS011;27809;51.864;5.646;2023-09-12T04:58:07;86.72;;;28.40;;
42140;SDS011;27809;51.864;5.646;2023-09-12T05:00:33;66.85;;;28.90;;
42140;SDS011;27809;51.864;5.646;2023-09-12T05:02:58;90.28;;;34.47;;
42140;SDS011;27809;51.864;5.646;2023-09-12T05:05:25;109.95;;;38.60;;
42140;SDS011;27809;51.864;5.646;2023-09-12T05:07:50;94.72;;;32.83;;
42140;SDS011;27809;51.864;5.646;2023-09-12T05:10:18;97.32;;;36.97;;
42140;SDS011;27809;51.864;5.646;2023-09-12T05:12:44;92.75;;;35.65;;
42140;SDS011;27809;51.864;5.646;2023-09-12T05:15:10;88.80;;;33.00;;
42140;SDS011;27809;51.864;5.646;2023-09-12T05:17:35;81.60;;;34.63;;
42140;SDS011;27809;51.864;5.646;2023-09-12T05:20:01;98.13;;;33.35;;
42140;SDS011;27809;51.864;5.646;2023-09-12T05:22:28;83.35;;;32.55;;
42140;SDS011;27809;51.864;5.646;2023-09-12T05:24:54;93.88;;;32.50;;
42140;SDS011;27809;51.864;5.646;2023-09-12T05:27:19;75.85;;;33.17;;
42140;SDS011;27809;51.864;5.646;2023-09-12T05:29:45;67.53;;;27.42;;
42140;SDS011;27809;51.864;5.646;2023-09-12T05:32:10;78.05;;;32.33;;
42140;SDS011;27809;51.864;5.646;2023-09-12T05:34:36;86.00;;;32.75;;
42140;SDS011;27809;51.864;5.646;2023-09-12T05:37:01;92.22;;;35.03;;
42140;SDS011;27809;51.864;5.646;2023-09-12T05:39:27;75.85;;;31.85;;
42140;SDS011;27809;51.864;5.646;2023-09-12T05:41:53;78.18;;;33.30;;
42140;SDS011;27809;51.864;5.646;2023-09-12T05:44:18;65.38;;;30.00;;
42140;SDS011;27809;51.864;5.646;2023-09-12T05:46:45;63.92;;;30.02;;
42140;SDS011;27809;51.864;5.646;2023-09-12T05:49:11;72.45;;;29.90;;
42140;SDS011;27809;51.864;5.646;2023-09-12T05:51:37;65.88;;;31.17;;
42140;SDS011;27809;51.864;5.646;2023-09-12T05:54:03;73.60;;;31.25;;
42140;SDS011;27809;51.864;5.646;2023-09-12T05:56:28;68.57;;;30.10;;
42140;SDS011;27809;51.864;5.646;2023-09-12T05:58:54;80.93;;;33.20;;
42140;SDS011;27809;51.864;5.646;2023-09-12T06:01:19;74.45;;;34.20;;
42140;SDS011;27809;51.864;5.646;2023-09-12T06:03:45;78.45;;;32.78;;
42140;SDS011;27809;51.864;5.646;2023-09-12T06:06:10;86.38;;;34.70;;
42140;SDS011;27809;51.864;5.646;2023-09-12T06:08:36;64.13;;;29.10;;
42140;SDS011;27809;51.864;5.646;2023-09-12T06:11:02;71.40;;;33.33;;
42140;SDS011;27809;51.864;5.646;2023-09-12T06:13:28;87.43;;;34.33;;
42140;SDS011;27809;51.864;5.646;2023-09-12T06:15:54;91.10;;;34.72;;
42140;SDS011;27809;51.864;5.646;2023-09-12T06:18:19;74.53;;;31.25;;
42140;SDS011;27809;51.864;5.646;2023-09-12T06:20:45;76.13;;;32.60;;
42140;SDS011;27809;51.864;5.646;2023-09-12T06:23:11;69.82;;;30.63;;
42140;SDS011;27809;51.864;5.646;2023-09-12T06:25:36;74.55;;;32.53;;
42140;SDS011;27809;51.864;5.646;2023-09-12T06:28:02;65.18;;;31.38;;
42140;SDS011;27809;51.864;5.646;2023-09-12T06:30:28;66.30;;;31.58;;
42140;SDS011;27809;51.864;5.646;2023-09-12T06:32:53;63.58;;;29.75;;
42140;SDS011;27809;51.864;5.646;2023-09-12T06:35:19;74.47;;;31.83;;
42140;SDS011;27809;51.864;5.646;2023-09-12T06:37:44;60.28;;;29.05;;
42140;SDS011;27809;51.864;5.646;2023-09-12T06:40:12;67.32;;;30.48;;
42140;SDS011;27809;51.864;5.646;2023-09-12T06:42:37;66.78;;;30.60;;
42140;SDS011;27809;51.864;5.646;2023-09-12T06:45:03;70.05;;;30.45;;
42140;SDS011;27809;51.864;5.646;2023-09-12T06:47:28;61.83;;;29.95;;
42140;SDS011;27809;51.864;5.646;2023-09-12T06:49:54;59.88;;;30.83;;
42140;SDS011;27809;51.864;5.646;2023-09-12T06:52:19;65.80;;;29.83;;
42140;SDS011;27809;51.864;5.646;2023-09-12T06:54:45;63.97;;;28.95;;
42140;SDS011;27809;51.864;5.646;2023-09-12T06:57:10;68.15;;;32.33;;
42140;SDS011;27809;51.864;5.646;2023-09-12T06:59:36;72.10;;;31.63;;
42140;SDS011;27809;51.864;5.646;2023-09-12T07:02:02;72.22;;;31.63;;
42140;SDS011;27809;51.864;5.646;2023-09-12T07:04:27;62.90;;;33.22;;
42140;SDS011;27809;51.864;5.646;2023-09-12T07:06:54;59.40;;;30.90;;
42140;SDS011;27809;51.864;5.646;2023-09-12T07:09:19;53.65;;;27.10;;
42140;SDS011;27809;51.864;5.646;2023-09-12T07:11:45;73.35;;;33.17;;
42140;SDS011;27809;51.864;5.646;2023-09-12T07:14:12;62.13;;;29.45;;
42140;SDS011;27809;51.864;5.646;2023-09-12T07:16:37;62.35;;;29.58;;
42140;SDS011;27809;51.864;5.646;2023-09-12T07:19:03;59.08;;;29.77;;
42140;SDS011;27809;51.864;5.646;2023-09-12T07:21:28;73.25;;;32.80;;
42140;SDS011;27809;51.864;5.646;2023-09-12T07:23:54;67.18;;;30.83;;
42140;SDS011;27809;51.864;5.646;2023-09-12T07:26:20;69.00;;;30.75;;
42140;SDS011;27809;51.864;5.646;2023-09-12T07:28:46;68.80;;;30.02;;
42140;SDS011;27809;51.864;5.646;2023-09-12T07:31:11;63.60;;;30.55;;
42140;SDS011;27809;51.864;5.646;2023-09-12T07:33:37;67.03;;;29.52;;
42140;SDS011;27809;51.864;5.646;2023-09-12T07:36:02;67.65;;;30.90;;
42140;SDS011;27809;51.864;5.646;2023-09-12T07:38:28;61.40;;;29.38;;
42140;SDS011;27809;51.864;5.646;2023-09-12T07:40:56;61.05;;;30.73;;
42140;SDS011;27809;51.864;5.646;2023-09-12T07:43:22;63.33;;;28.73;;
42140;SDS011;27809;51.864;5.646;2023-09-12T07:45:48;63.53;;;30.17;;
42140;SDS011;27809;51.864;5.646;2023-09-12T07:48:14;57.05;;;27.25;;
42140;SDS011;27809;51.864;5.646;2023-09-12T07:50:40;54.72;;;27.00;;
42140;SDS011;27809;51.864;5.646;2023-09-12T07:53:06;59.13;;;30.13;;
42140;SDS011;27809;51.864;5.646;2023-09-12T07:55:34;51.85;;;25.67;;
42140;SDS011;27809;51.864;5.646;2023-09-12T07:58:17;51.05;;;28.65;;
42140;SDS011;27809;51.864;5.646;2023-09-12T08:00:43;47.58;;;24.35;;
42140;SDS011;27809;51.864;5.646;2023-09-12T08:03:09;48.50;;;25.73;;
42140;SDS011;27809;51.864;5.646;2023-09-12T08:05:34;39.80;;;22.83;;
42140;SDS011;27809;51.864;5.646;2023-09-12T08:08:01;43.58;;;23.40;;
42140;SDS011;27809;51.864;5.646;2023-09-12T08:10:26;46.20;;;25.10;;
42140;SDS011;27809;51.864;5.646;2023-09-12T08:12:53;37.22;;;21.35;;
42140;SDS011;27809;51.864;5.646;2023-09-12T08:15:19;36.20;;;23.08;;
42140;SDS011;27809;51.864;5.646;2023-09-12T08:17:44;37.67;;;24.30;;
42140;SDS011;27809;51.864;5.646;2023-09-12T08:20:10;34.17;;;21.35;;
42140;SDS011;27809;51.864;5.646;2023-09-12T08:22:36;31.88;;;19.45;;
42140;SDS011;27809;51.864;5.646;2023-09-12T08:25:02;32.65;;;19.15;;
42140;SDS011;27809;51.864;5.646;2023-09-12T08:27:28;33.97;;;20.40;;
42140;SDS011;27809;51.864;5.646;2023-09-12T08:29:53;29.15;;;17.58;;
42140;SDS011;27809;51.864;5.646;2023-09-12T08:32:19;32.85;;;17.05;;
42140;SDS011;27809;51.864;5.646;2023-09-12T08:34:45;29.60;;;17.00;;
42140;SDS011;27809;51.864;5.646;2023-09-12T08:37:10;27.80;;;17.08;;
42140;SDS011;27809;51.864;5.646;2023-09-12T08:39:40;25.38;;;15.70;;
42140;SDS011;27809;51.864;5.646;2023-09-12T08:42:13;22.73;;;15.25;;
42140;SDS011;27809;51.864;5.646;2023-09-12T08:44:40;26.05;;;16.27;;
42140;SDS011;27809;51.864;5.646;2023-09-12T08:47:07;20.60;;;13.73;;
42140;SDS011;27809;51.864;5.646;2023-09-12T08:52:50;19.98;;;11.90;;
42140;SDS011;27809;51.864;5.646;2023-09-12T08:55:16;25.05;;;13.80;;
42140;SDS011;27809;51.864;5.646;2023-09-12T08:57:42;20.25;;;12.52;;
42140;SDS011;27809;51.864;5.646;2023-09-12T09:00:09;23.55;;;12.88;;
42140;SDS011;27809;51.864;5.646;2023-09-12T09:02:38;19.70;;;12.30;;
42140;SDS011;27809;51.864;5.646;2023-09-12T09:05:05;23.13;;;13.48;;
42140;SDS011;27809;51.864;5.646;2023-09-12T09:07:33;20.02;;;13.02;;
42140;SDS011;27809;51.864;5.646;2023-09-12T09:10:03;22.23;;;12.57;;
42140;SDS011;27809;51.864;5.646;2023-09-12T09:12:31;24.10;;;13.55;;
42140;SDS011;27809;51.864;5.646;2023-09-12T09:14:57;19.60;;;11.70;;
42140;SDS011;27809;51.864;5.646;2023-09-12T09:17:23;22.23;;;14.20;;
42140;SDS011;27809;51.864;5.646;2023-09-12T09:19:49;23.35;;;15.48;;
42140;SDS011;27809;51.864;5.646;2023-09-12T09:22:14;23.25;;;13.00;;
42140;SDS011;27809;51.864;5.646;2023-09-12T09:24:40;21.92;;;14.27;;
42140;SDS011;27809;51.864;5.646;2023-09-12T09:27:06;27.48;;;15.02;;
42140;SDS011;27809;51.864;5.646;2023-09-12T09:29:32;23.30;;;9.45;;
42140;SDS011;27809;51.864;5.646;2023-09-12T09:32:10;15.82;;;8.20;;
42140;SDS011;27809;51.864;5.646;2023-09-12T09:37:07;12.43;;;8.50;;
42140;SDS011;27809;51.864;5.646;2023-09-12T09:39:34;19.35;;;10.20;;
42140;SDS011;27809;51.864;5.646;2023-09-12T09:42:00;14.18;;;9.98;;
42140;SDS011;27809;51.864;5.646;2023-09-12T09:44:26;15.65;;;9.75;;
42140;SDS011;27809;51.864;5.646;2023-09-12T09:46:59;18.50;;;9.43;;
42140;SDS011;27809;51.864;5.646;2023-09-12T09:49:27;15.25;;;10.10;;
42140;SDS011;27809;51.864;5.646;2023-09-12T09:51:55;17.38;;;9.95;;
42140;SDS011;27809;51.864;5.646;2023-09-12T09:54:23;20.02;;;11.98;;
42140;SDS011;27809;51.864;5.646;2023-09-12T09:56:53;20.00;;;13.77;;
42140;SDS011;27809;51.864;5.646;2023-09-12T09:59:23;21.27;;;12.73;;
42140;SDS011;27809;51.864;5.646;2023-09-12T10:01:50;20.52;;;10.05;;
42140;SDS011;27809;51.864;5.646;2023-09-12T10:04:18;17.88;;;10.07;;
42140;SDS011;27809;51.864;5.646;2023-09-12T10:06:44;16.33;;;9.80;;
42140;SDS011;27809;51.864;5.646;2023-09-12T10:09:12;24.67;;;13.25;;
42140;SDS011;27809;51.864;5.646;2023-09-12T10:11:40;23.60;;;14.23;;
42140;SDS011;27809;51.864;5.646;2023-09-12T10:14:07;26.65;;;16.27;;
42140;SDS011;27809;51.864;5.646;2023-09-12T10:16:34;26.63;;;15.82;;
42140;SDS011;27809;51.864;5.646;2023-09-12T10:21:35;28.20;;;15.35;;
42140;SDS011;27809;51.864;5.646;2023-09-12T10:24:02;21.50;;;11.27;;
42140;SDS011;27809;51.864;5.646;2023-09-12T10:26:28;20.95;;;12.45;;
42140;SDS011;27809;51.864;5.646;2023-09-12T10:28:56;26.88;;;13.70;;
42140;SDS011;27809;51.864;5.646;2023-09-12T10:31:24;27.48;;;15.48;;
42140;SDS011;27809;51.864;5.646;2023-09-12T10:33:51;16.73;;;9.80;;
42140;SDS011;27809;51.864;5.646;2023-09-12T10:36:19;18.27;;;9.50;;
42140;SDS011;27809;51.864;5.646;2023-09-12T10:38:46;22.85;;;12.15;;
42140;SDS011;27809;51.864;5.646;2023-09-12T10:41:13;15.32;;;8.35;;
42140;SDS011;27809;51.864;5.646;2023-09-12T10:43:40;16.77;;;8.48;;
42140;SDS011;27809;51.864;5.646;2023-09-12T10:46:06;9.75;;;7.45;;
42140;SDS011;27809;51.864;5.646;2023-09-12T10:48:34;18.45;;;11.57;;
42140;SDS011;27809;51.864;5.646;2023-09-12T10:51:04;24.40;;;13.68;;
42140;SDS011;27809;51.864;5.646;2023-09-12T10:53:32;26.15;;;13.95;;
42140;SDS011;27809;51.864;5.646;2023-09-12T10:59:25;17.02;;;11.18;;
42140;SDS011;27809;51.864;5.646;2023-09-12T11:01:28;19.98;;;8.60;;
42140;SDS011;27809;51.864;5.646;2023-09-12T11:03:55;17.35;;;8.80;;
42140;SDS011;27809;51.864;5.646;2023-09-12T11:06:22;19.85;;;11.48;;
42140;SDS011;27809;51.864;5.646;2023-09-12T11:11:37;26.02;;;13.82;;
42140;SDS011;27809;51.864;5.646;2023-09-12T11:14:04;24.50;;;12.70;;
42140;SDS011;27809;51.864;5.646;2023-09-12T11:16:30;21.70;;;13.00;;
42140;SDS011;27809;51.864;5.646;2023-09-12T11:19:11;18.70;;;13.10;;
42140;SDS011;27809;51.864;5.646;2023-09-12T11:21:45;20.33;;;12.77;;
42140;SDS011;27809;51.864;5.646;2023-09-12T11:24:12;24.25;;;12.45;;
42140;SDS011;27809;51.864;5.646;2023-09-12T11:29:19;22.95;;;12.25;;
42140;SDS011;27809;51.864;5.646;2023-09-12T11:31:54;19.73;;;11.05;;
42140;SDS011;27809;51.864;5.646;2023-09-12T11:34:24;18.13;;;10.77;;
42140;SDS011;27809;51.864;5.646;2023-09-12T11:36:51;13.73;;;9.35;;
42140;SDS011;27809;51.864;5.646;2023-09-12T11:39:24;22.55;;;11.45;;
42140;SDS011;27809;51.864;5.646;2023-09-12T11:41:53;22.42;;;12.30;;
42140;SDS011;27809;51.864;5.646;2023-09-12T11:44:20;23.88;;;11.85;;
42140;SDS011;27809;51.864;5.646;2023-09-12T11:46:47;19.55;;;12.45;;
42140;SDS011;27809;51.864;5.646;2023-09-12T11:49:14;20.58;;;11.75;;
42140;SDS011;27809;51.864;5.646;2023-09-12T11:51:47;22.67;;;13.00;;
42140;SDS011;27809;51.864;5.646;2023-09-12T11:56:39;18.08;;;11.27;;
42140;SDS011;27809;51.864;5.646;2023-09-12T11:59:04;19.40;;;9.98;;
42140;SDS011;27809;51.864;5.646;2023-09-12T12:01:31;21.38;;;10.43;;
42140;SDS011;27809;51.864;5.646;2023-09-12T12:03:57;14.57;;;9.20;;
42140;SDS011;27809;51.864;5.646;2023-09-12T12:06:23;15.52;;;9.05;;
42140;SDS011;27809;51.864;5.646;2023-09-12T12:08:48;14.82;;;9.05;;
42140;SDS011;27809;51.864;5.646;2023-09-12T12:11:14;16.20;;;7.78;;
42140;SDS011;27809;51.864;5.646;2023-09-12T12:13:39;15.65;;;8.02;;
42140;SDS011;27809;51.864;5.646;2023-09-12T12:16:17;12.82;;;6.70;;
42140;SDS011;27809;51.864;5.646;2023-09-12T12:18:43;20.13;;;10.13;;
42140;SDS011;27809;51.864;5.646;2023-09-12T12:21:09;14.82;;;9.38;;
42140;SDS011;27809;51.864;5.646;2023-09-12T12:23:34;18.13;;;11.68;;
42140;SDS011;27809;51.864;5.646;2023-09-12T12:26:05;21.75;;;11.15;;
42140;SDS011;27809;51.864;5.646;2023-09-12T12:28:33;18.27;;;10.45;;
42140;SDS011;27809;51.864;5.646;2023-09-12T12:31:00;22.95;;;13.10;;
42140;SDS011;27809;51.864;5.646;2023-09-12T12:33:27;27.13;;;14.13;;
42140;SDS011;27809;51.864;5.646;2023-09-12T12:36:02;23.73;;;13.50;;
42140;SDS011;27809;51.864;5.646;2023-09-12T12:38:38;22.48;;;13.30;;
42140;SDS011;27809;51.864;5.646;2023-09-12T12:41:04;21.48;;;14.10;;
42140;SDS011;27809;51.864;5.646;2023-09-12T12:43:30;21.00;;;12.90;;
42140;SDS011;27809;51.864;5.646;2023-09-12T12:45:57;21.92;;;14.32;;
42140;SDS011;27809;51.864;5.646;2023-09-12T12:48:33;20.65;;;12.70;;
42140;SDS011;27809;51.864;5.646;2023-09-12T12:50:59;22.58;;;12.80;;
42140;SDS011;27809;51.864;5.646;2023-09-12T12:53:38;20.05;;;12.20;;
42140;SDS011;27809;51.864;5.646;2023-09-12T12:56:04;21.92;;;13.15;;
42140;SDS011;27809;51.864;5.646;2023-09-12T12:58:30;26.63;;;13.60;;
42140;SDS011;27809;51.864;5.646;2023-09-12T13:00:55;19.15;;;10.73;;
42140;SDS011;27809;51.864;5.646;2023-09-12T13:03:21;18.58;;;10.07;;
42140;SDS011;27809;51.864;5.646;2023-09-12T13:05:46;18.80;;;10.27;;
42140;SDS011;27809;51.864;5.646;2023-09-12T13:08:12;16.73;;;9.68;;
42140;SDS011;27809;51.864;5.646;2023-09-12T13:10:37;20.63;;;10.40;;
42140;SDS011;27809;51.864;5.646;2023-09-12T13:13:03;21.15;;;10.73;;
42140;SDS011;27809;51.864;5.646;2023-09-12T13:15:29;18.95;;;10.48;;
42140;SDS011;27809;51.864;5.646;2023-09-12T13:17:54;22.80;;;11.50;;
42140;SDS011;27809;51.864;5.646;2023-09-12T13:20:20;18.58;;;11.80;;
42140;SDS011;27809;51.864;5.646;2023-09-12T13:22:45;16.25;;;9.45;;
42140;SDS011;27809;51.864;5.646;2023-09-12T13:25:11;17.25;;;9.40;;
42140;SDS011;27809;51.864;5.646;2023-09-12T13:27:37;17.70;;;10.20;;
42140;SDS011;27809;51.864;5.646;2023-09-12T13:30:02;21.20;;;11.75;;
42140;SDS011;27809;51.864;5.646;2023-09-12T13:32:28;21.02;;;11.43;;
42140;SDS011;27809;51.864;5.646;2023-09-12T13:34:54;17.42;;;10.50;;
42140;SDS011;27809;51.864;5.646;2023-09-12T13:37:19;14.90;;;9.32;;
42140;SDS011;27809;51.864;5.646;2023-09-12T13:39:46;17.98;;;10.05;;
42140;SDS011;27809;51.864;5.646;2023-09-12T13:42:15;15.88;;;9.60;;
42140;SDS011;27809;51.864;5.646;2023-09-12T13:44:47;15.02;;;7.80;;
42140;SDS011;27809;51.864;5.646;2023-09-12T13:47:13;17.45;;;9.88;;
42140;SDS011;27809;51.864;5.646;2023-09-12T13:49:46;15.05;;;8.60;;
42140;SDS011;27809;51.864;5.646;2023-09-12T13:52:11;13.13;;;8.23;;
42140;SDS011;27809;51.864;5.646;2023-09-12T13:54:37;16.17;;;7.75;;
42140;SDS011;27809;51.864;5.646;2023-09-12T13:57:02;12.82;;;6.72;;
42140;SDS011;27809;51.864;5.646;2023-09-12T13:59:28;17.70;;;7.78;;
42140;SDS011;27809;51.864;5.646;2023-09-12T14:01:53;14.38;;;8.32;;
42140;SDS011;27809;51.864;5.646;2023-09-12T14:04:19;13.32;;;7.55;;
42140;SDS011;27809;51.864;5.646;2023-09-12T14:06:45;12.90;;;8.13;;
42140;SDS011;27809;51.864;5.646;2023-09-12T14:09:10;13.48;;;6.53;;
42140;SDS011;27809;51.864;5.646;2023-09-12T14:11:36;12.35;;;7.82;;
42140;SDS011;27809;51.864;5.646;2023-09-12T14:14:02;14.75;;;7.18;;
42140;SDS011;27809;51.864;5.646;2023-09-12T14:16:28;12.40;;;6.38;;
42140;SDS011;27809;51.864;5.646;2023-09-12T14:18:55;11.25;;;5.18;;
42140;SDS011;27809;51.864;5.646;2023-09-12T14:21:20;14.75;;;6.90;;
42140;SDS011;27809;51.864;5.646;2023-09-12T14:23:46;12.05;;;6.75;;
42140;SDS011;27809;51.864;5.646;2023-09-12T14:26:11;14.35;;;5.97;;
42140;SDS011;27809;51.864;5.646;2023-09-12T14:28:37;13.10;;;6.90;;
42140;SDS011;27809;51.864;5.646;2023-09-12T14:31:03;12.25;;;6.47;;
42140;SDS011;27809;51.864;5.646;2023-09-12T14:33:30;10.07;;;5.35;;
42140;SDS011;27809;51.864;5.646;2023-09-12T14:35:55;8.48;;;5.30;;
42140;SDS011;27809;51.864;5.646;2023-09-12T14:38:21;10.73;;;6.38;;
42140;SDS011;27809;51.864;5.646;2023-09-12T14:40:52;10.27;;;5.50;;
42140;SDS011;27809;51.864;5.646;2023-09-12T14:43:18;6.40;;;3.67;;